Blue River Airport
CYCP : now visible

Aeroporto :











RITROVATECI SU...

 
LOGIN :

Iscrizione | Disclaimer

   EN    FR    IT 

 









Sommario :    VFR   VFR Marginale   IFR   IFR Intensivo   IFR Molto Intensivo
Visibilità : 
Base nubi : 
>= 8 km
>= 3000ft
5 / 8 km
1000 / 3000 ft
1500m / 5 km
500 / 1000 ft
800 / 1500m
200 / 500 ft
< 800m
< 200 ft
Simboli :   Temporali  Nebbia  Neve Forte  Precipitazioni Forti  Vento > 20 kt






- Altitudine del aeroporto : 2240 ft


CYCP - Blue River

ULTIMO METAR :
  • 070000Z 00000KT 3/4SM -SN VV028 M04/M05 A2988 RMK SN8 /S10/ LAST STFD OBS/NEXT 071400 SLP157

METARs OBSOLETI :
  • 062300Z 00000KT 3/4SM -SN VV020 M04/M05 A2989 RMK SN8 SLP162
  • 062200Z 00000KT 3/4SM -SN VV022 M04/M05 A2991 RMK SN8 /S06/ SLP168

TAF N/A



MetMap, La meteo Aeronautica in un colpo d'occhio ! - Copyright ORBIFLY Dicembre 2007 - Disclaimer

ORBIFLY MET'MAP TEAM :

Programmazione e sviluppo : Alexandra Zaïnal
Concezione : Baudouin d'Aumeries
Aiuto per la programmazione : Marc-Olivier Méhu
Supporto tecnico e logistico : Manuel Goepfert
Aiuto per la traduzione : Arnaldo La Scala

Contatto : metmap@orbifly.com




FONTI E CREDITI :

   NOAA       Earth
Advisory